TimeAKDT,TemperatureF,Dew PointF,Humidity,Sea Level PressureIn,VisibilityMPH,Wind Direction,Wind SpeedMPH,Gust SpeedMPH,PrecipitationIn,Events,Conditions,WindDirDegrees,DateUTC
12:53 AM,62.1,46.9,58,30.17,10.0,SSW,6.9,-,N/A,,Clear,200,2013-07-14 08:53:00
1:53 AM,60.1,48.0,64,30.19,10.0,Calm,Calm,-,N/A,,Mostly Cloudy,0,2013-07-14 09:53:00
2:53 AM,55.9,50.0,80,30.21,10.0,Calm,Calm,-,N/A,,Clear,0,2013-07-14 10:53:00
3:53 AM,52.0,48.9,89,30.23,10.0,Calm,Calm,-,N/A,,Clear,0,2013-07-14 11:53:00
4:53 AM,50.0,46.9,89,30.25,10.0,Calm,Calm,-,N/A,,Clear,0,2013-07-14 12:53:00
5:53 AM,51.1,48.0,89,30.27,10.0,Calm,Calm,-,N/A,,Clear,0,2013-07-14 13:53:00
6:53 AM,54.0,48.9,83,30.28,10.0,Calm,Calm,-,N/A,,Clear,0,2013-07-14 14:53:00
7:53 AM,57.9,48.0,70,30.29,10.0,SW,3.5,-,N/A,,Clear,220,2013-07-14 15:53:00
8:53 AM,59.0,46.9,64,30.30,10.0,SSW,9.2,-,N/A,,Partly Cloudy,200,2013-07-14 16:53:00
9:53 AM,60.1,48.9,67,30.31,10.0,Variable,5.8,-,N/A,,Scattered Clouds,0,2013-07-14 17:53:00
10:53 AM,61.0,48.9,64,30.30,10.0,SW,4.6,-,N/A,,Clear,230,2013-07-14 18:53:00
11:53 AM,64.0,50.0,60,30.30,10.0,SW,4.6,-,N/A,,Partly Cloudy,220,2013-07-14 19:53:00
12:53 PM,66.0,50.0,56,30.30,10.0,South,8.1,-,N/A,,Partly Cloudy,190,2013-07-14 20:53:00
1:53 PM,68.0,51.1,55,30.29,10.0,South,5.8,-,N/A,,Partly Cloudy,190,2013-07-14 21:53:00
2:53 PM,69.1,51.1,53,30.28,10.0,South,6.9,-,N/A,,Clear,190,2013-07-14 22:53:00
3:53 PM,71.1,52.0,51,30.26,10.0,Variable,4.6,-,N/A,,Clear,0,2013-07-14 23:53:00
4:53 PM,72.0,53.1,51,30.25,10.0,SW,8.1,-,N/A,,Clear,220,2013-07-15 00:53:00
5:53 PM,71.1,53.1,53,30.25,10.0,SSW,9.2,-,N/A,,Clear,200,2013-07-15 01:53:00
6:53 PM,72.0,52.0,49,30.24,10.0,South,9.2,-,N/A,,Clear,170,2013-07-15 02:53:00
7:53 PM,71.1,52.0,51,30.24,10.0,South,10.4,-,N/A,,Clear,190,2013-07-15 03:53:00
8:53 PM,70.0,51.1,51,30.24,10.0,SSE,10.4,-,N/A,,Clear,160,2013-07-15 04:53:00
9:53 PM,66.9,51.1,57,30.25,10.0,South,10.4,-,N/A,,Clear,190,2013-07-15 05:53:00
10:53 PM,64.0,50.0,60,30.27,10.0,South,8.1,-,N/A,,Clear,190,2013-07-15 06:53:00
11:53 PM,61.0,48.9,64,30.29,10.0,South,6.9,-,N/A,,Clear,180,2013-07-15 07:53:00